sensor_id;sensor_type;location;lat;lon;timestamp;P1;durP1;ratioP1;P2;durP2;ratioP2
43519;SDS011;46848;51.980;5.918;2023-12-04T00:00:27;38.30;;;20.23;;
43519;SDS011;46848;51.980;5.918;2023-12-04T00:02:52;36.90;;;21.27;;
43519;SDS011;46848;51.980;5.918;2023-12-04T00:05:18;40.97;;;20.80;;
43519;SDS011;46848;51.980;5.918;2023-12-04T00:07:44;37.47;;;20.43;;
43519;SDS011;46848;51.980;5.918;2023-12-04T00:10:09;36.33;;;20.93;;
43519;SDS011;46848;51.980;5.918;2023-12-04T00:12:35;35.33;;;19.20;;
43519;SDS011;46848;51.980;5.918;2023-12-04T00:15:00;38.40;;;21.50;;
43519;SDS011;46848;51.980;5.918;2023-12-04T00:17:26;36.63;;;20.57;;
43519;SDS011;46848;51.980;5.918;2023-12-04T00:19:52;39.40;;;21.67;;
43519;SDS011;46848;51.980;5.918;2023-12-04T00:22:17;39.07;;;22.63;;
43519;SDS011;46848;51.980;5.918;2023-12-04T00:24:43;35.63;;;19.80;;
43519;SDS011;46848;51.980;5.918;2023-12-04T00:27:08;34.47;;;19.60;;
43519;SDS011;46848;51.980;5.918;2023-12-04T00:29:34;37.73;;;20.10;;
43519;SDS011;46848;51.980;5.918;2023-12-04T00:31:59;38.83;;;21.43;;
43519;SDS011;46848;51.980;5.918;2023-12-04T00:34:25;36.20;;;20.03;;
43519;SDS011;46848;51.980;5.918;2023-12-04T00:36:50;33.10;;;19.23;;
43519;SDS011;46848;51.980;5.918;2023-12-04T00:39:16;33.57;;;18.47;;
43519;SDS011;46848;51.980;5.918;2023-12-04T00:41:42;31.33;;;17.33;;
43519;SDS011;46848;51.980;5.918;2023-12-04T00:44:08;34.17;;;18.87;;
43519;SDS011;46848;51.980;5.918;2023-12-04T00:46:33;33.90;;;19.63;;
43519;SDS011;46848;51.980;5.918;2023-12-04T00:48:59;34.20;;;19.57;;
43519;SDS011;46848;51.980;5.918;2023-12-04T00:51:24;33.20;;;18.87;;
43519;SDS011;46848;51.980;5.918;2023-12-04T00:53:51;33.90;;;19.00;;
43519;SDS011;46848;51.980;5.918;2023-12-04T00:56:16;34.73;;;19.83;;
43519;SDS011;46848;51.980;5.918;2023-12-04T00:58:43;35.33;;;20.23;;
43519;SDS011;46848;51.980;5.918;2023-12-04T01:01:09;33.87;;;19.03;;
43519;SDS011;46848;51.980;5.918;2023-12-04T01:03:34;33.67;;;19.13;;
43519;SDS011;46848;51.980;5.918;2023-12-04T01:06:00;34.23;;;19.70;;
43519;SDS011;46848;51.980;5.918;2023-12-04T01:08:26;34.87;;;19.10;;
43519;SDS011;46848;51.980;5.918;2023-12-04T01:10:51;35.97;;;20.37;;
43519;SDS011;46848;51.980;5.918;2023-12-04T01:13:17;31.20;;;18.53;;
43519;SDS011;46848;51.980;5.918;2023-12-04T01:15:42;30.67;;;17.10;;
43519;SDS011;46848;51.980;5.918;2023-12-04T01:18:09;34.03;;;17.60;;
43519;SDS011;46848;51.980;5.918;2023-12-04T01:20:35;32.20;;;17.77;;
43519;SDS011;46848;51.980;5.918;2023-12-04T01:23:01;32.10;;;18.57;;
43519;SDS011;46848;51.980;5.918;2023-12-04T01:25:27;31.73;;;18.27;;
43519;SDS011;46848;51.980;5.918;2023-12-04T01:27:52;31.40;;;18.33;;
43519;SDS011;46848;51.980;5.918;2023-12-04T01:30:18;32.83;;;18.43;;
43519;SDS011;46848;51.980;5.918;2023-12-04T01:32:43;31.50;;;18.03;;
43519;SDS011;46848;51.980;5.918;2023-12-04T01:35:09;32.60;;;18.27;;
43519;SDS011;46848;51.980;5.918;2023-12-04T01:37:34;32.07;;;18.40;;
43519;SDS011;46848;51.980;5.918;2023-12-04T01:40:02;33.97;;;18.57;;
43519;SDS011;46848;51.980;5.918;2023-12-04T01:42:31;32.93;;;18.37;;
43519;SDS011;46848;51.980;5.918;2023-12-04T01:44:57;34.80;;;19.30;;
43519;SDS011;46848;51.980;5.918;2023-12-04T01:47:23;35.70;;;18.63;;
43519;SDS011;46848;51.980;5.918;2023-12-04T01:49:49;34.00;;;19.37;;
43519;SDS011;46848;51.980;5.918;2023-12-04T01:52:15;31.93;;;18.63;;
43519;SDS011;46848;51.980;5.918;2023-12-04T01:54:41;32.63;;;17.90;;
43519;SDS011;46848;51.980;5.918;2023-12-04T01:57:07;34.87;;;19.60;;
43519;SDS011;46848;51.980;5.918;2023-12-04T01:59:34;33.50;;;18.97;;
43519;SDS011;46848;51.980;5.918;2023-12-04T02:01:59;28.67;;;16.93;;
43519;SDS011;46848;51.980;5.918;2023-12-04T02:04:27;32.10;;;18.23;;
43519;SDS011;46848;51.980;5.918;2023-12-04T02:06:52;33.40;;;19.20;;
43519;SDS011;46848;51.980;5.918;2023-12-04T02:09:19;34.57;;;18.27;;
43519;SDS011;46848;51.980;5.918;2023-12-04T02:11:44;34.43;;;19.20;;
43519;SDS011;46848;51.980;5.918;2023-12-04T02:14:10;34.10;;;18.53;;
43519;SDS011;46848;51.980;5.918;2023-12-04T02:16:37;30.33;;;17.83;;
43519;SDS011;46848;51.980;5.918;2023-12-04T02:19:07;31.83;;;17.43;;
43519;SDS011;46848;51.980;5.918;2023-12-04T02:21:34;29.83;;;17.23;;
43519;SDS011;46848;51.980;5.918;2023-12-04T02:23:59;29.90;;;16.93;;
43519;SDS011;46848;51.980;5.918;2023-12-04T02:26:27;30.67;;;17.50;;
43519;SDS011;46848;51.980;5.918;2023-12-04T02:28:59;28.63;;;16.40;;
43519;SDS011;46848;51.980;5.918;2023-12-04T02:31:27;27.97;;;15.63;;
43519;SDS011;46848;51.980;5.918;2023-12-04T02:33:56;27.67;;;16.87;;
43519;SDS011;46848;51.980;5.918;2023-12-04T02:36:24;31.90;;;17.50;;
43519;SDS011;46848;51.980;5.918;2023-12-04T02:38:51;32.93;;;17.70;;
43519;SDS011;46848;51.980;5.918;2023-12-04T02:41:17;29.27;;;17.03;;
43519;SDS011;46848;51.980;5.918;2023-12-04T02:43:43;28.33;;;17.63;;
43519;SDS011;46848;51.980;5.918;2023-12-04T02:46:09;28.33;;;16.60;;
43519;SDS011;46848;51.980;5.918;2023-12-04T02:48:34;28.27;;;16.10;;
43519;SDS011;46848;51.980;5.918;2023-12-04T02:51:00;30.10;;;16.57;;
43519;SDS011;46848;51.980;5.918;2023-12-04T02:53:27;26.93;;;15.20;;
43519;SDS011;46848;51.980;5.918;2023-12-04T02:55:52;28.03;;;15.93;;
43519;SDS011;46848;51.980;5.918;2023-12-04T02:58:18;26.07;;;15.30;;
43519;SDS011;46848;51.980;5.918;2023-12-04T03:00:44;30.60;;;16.73;;
43519;SDS011;46848;51.980;5.918;2023-12-04T03:03:09;26.83;;;15.10;;
43519;SDS011;46848;51.980;5.918;2023-12-04T03:05:35;26.73;;;16.13;;
43519;SDS011;46848;51.980;5.918;2023-12-04T03:08:01;26.10;;;15.17;;
43519;SDS011;46848;51.980;5.918;2023-12-04T03:10:27;25.23;;;14.77;;
43519;SDS011;46848;51.980;5.918;2023-12-04T03:12:52;25.27;;;15.13;;
43519;SDS011;46848;51.980;5.918;2023-12-04T03:15:18;25.67;;;15.37;;
43519;SDS011;46848;51.980;5.918;2023-12-04T03:17:44;25.13;;;15.70;;
43519;SDS011;46848;51.980;5.918;2023-12-04T03:20:09;28.57;;;14.77;;
43519;SDS011;46848;51.980;5.918;2023-12-04T03:22:38;27.17;;;16.33;;
43519;SDS011;46848;51.980;5.918;2023-12-04T03:25:04;28.57;;;15.97;;
43519;SDS011;46848;51.980;5.918;2023-12-04T03:27:30;25.30;;;14.93;;
43519;SDS011;46848;51.980;5.918;2023-12-04T03:29:56;26.37;;;14.93;;
43519;SDS011;46848;51.980;5.918;2023-12-04T03:32:21;26.10;;;15.73;;
43519;SDS011;46848;51.980;5.918;2023-12-04T03:34:47;23.53;;;14.50;;
43519;SDS011;46848;51.980;5.918;2023-12-04T03:37:12;25.53;;;15.47;;
43519;SDS011;46848;51.980;5.918;2023-12-04T03:39:38;22.33;;;13.80;;
43519;SDS011;46848;51.980;5.918;2023-12-04T03:42:03;21.10;;;12.47;;
43519;SDS011;46848;51.980;5.918;2023-12-04T03:44:30;20.93;;;12.00;;
43519;SDS011;46848;51.980;5.918;2023-12-04T03:46:55;21.77;;;13.03;;
43519;SDS011;46848;51.980;5.918;2023-12-04T03:49:21;23.87;;;13.80;;
43519;SDS011;46848;51.980;5.918;2023-12-04T03:51:47;22.40;;;13.50;;
43519;SDS011;46848;51.980;5.918;2023-12-04T03:54:12;26.53;;;14.37;;
43519;SDS011;46848;51.980;5.918;2023-12-04T03:56:39;21.93;;;13.53;;
43519;SDS011;46848;51.980;5.918;2023-12-04T03:59:04;22.37;;;13.50;;
43519;SDS011;46848;51.980;5.918;2023-12-04T04:01:30;21.33;;;12.30;;
43519;SDS011;46848;51.980;5.918;2023-12-04T04:03:55;22.53;;;12.97;;
43519;SDS011;46848;51.980;5.918;2023-12-04T04:06:21;23.80;;;14.00;;
43519;SDS011;46848;51.980;5.918;2023-12-04T04:08:47;21.23;;;12.93;;
43519;SDS011;46848;51.980;5.918;2023-12-04T04:11:13;22.10;;;14.13;;
43519;SDS011;46848;51.980;5.918;2023-12-04T04:13:39;19.47;;;12.90;;
43519;SDS011;46848;51.980;5.918;2023-12-04T04:16:04;22.53;;;13.50;;
43519;SDS011;46848;51.980;5.918;2023-12-04T04:18:30;21.13;;;12.37;;
43519;SDS011;46848;51.980;5.918;2023-12-04T04:20:56;21.83;;;13.23;;
43519;SDS011;46848;51.980;5.918;2023-12-04T04:23:22;21.10;;;12.40;;
43519;SDS011;46848;51.980;5.918;2023-12-04T04:25:47;23.23;;;12.87;;
43519;SDS011;46848;51.980;5.918;2023-12-04T04:28:13;20.33;;;11.80;;
43519;SDS011;46848;51.980;5.918;2023-12-04T04:30:38;21.93;;;12.40;;
43519;SDS011;46848;51.980;5.918;2023-12-04T04:33:05;19.80;;;12.47;;
43519;SDS011;46848;51.980;5.918;2023-12-04T04:35:30;21.30;;;12.50;;
43519;SDS011;46848;51.980;5.918;2023-12-04T04:37:56;20.73;;;12.70;;
43519;SDS011;46848;51.980;5.918;2023-12-04T04:40:22;21.63;;;12.33;;
43519;SDS011;46848;51.980;5.918;2023-12-04T04:42:47;19.80;;;12.23;;
43519;SDS011;46848;51.980;5.918;2023-12-04T04:45:13;19.37;;;11.90;;
43519;SDS011;46848;51.980;5.918;2023-12-04T04:47:39;16.67;;;10.67;;
43519;SDS011;46848;51.980;5.918;2023-12-04T04:50:04;19.60;;;12.03;;
43519;SDS011;46848;51.980;5.918;2023-12-04T04:52:30;22.10;;;12.07;;
43519;SDS011;46848;51.980;5.918;2023-12-04T04:54:56;23.63;;;13.27;;
43519;SDS011;46848;51.980;5.918;2023-12-04T04:57:21;20.30;;;11.37;;
43519;SDS011;46848;51.980;5.918;2023-12-04T04:59:47;18.53;;;11.27;;
43519;SDS011;46848;51.980;5.918;2023-12-04T05:02:13;19.80;;;11.40;;
43519;SDS011;46848;51.980;5.918;2023-12-04T05:04:38;19.77;;;11.53;;
43519;SDS011;46848;51.980;5.918;2023-12-04T05:07:04;18.73;;;10.80;;
43519;SDS011;46848;51.980;5.918;2023-12-04T05:09:29;18.83;;;10.67;;
43519;SDS011;46848;51.980;5.918;2023-12-04T05:11:55;18.30;;;10.77;;
43519;SDS011;46848;51.980;5.918;2023-12-04T05:14:21;21.03;;;12.17;;
43519;SDS011;46848;51.980;5.918;2023-12-04T05:16:46;18.87;;;11.20;;
43519;SDS011;46848;51.980;5.918;2023-12-04T05:19:12;22.50;;;11.80;;
43519;SDS011;46848;51.980;5.918;2023-12-04T05:21:37;17.80;;;10.93;;
43519;SDS011;46848;51.980;5.918;2023-12-04T05:24:03;18.20;;;11.63;;
43519;SDS011;46848;51.980;5.918;2023-12-04T05:26:28;19.30;;;11.20;;
43519;SDS011;46848;51.980;5.918;2023-12-04T05:28:54;17.10;;;10.13;;
43519;SDS011;46848;51.980;5.918;2023-12-04T05:31:19;18.67;;;11.43;;
43519;SDS011;46848;51.980;5.918;2023-12-04T05:33:45;19.00;;;11.03;;
43519;SDS011;46848;51.980;5.918;2023-12-04T05:36:11;16.57;;;9.73;;
43519;SDS011;46848;51.980;5.918;2023-12-04T05:38:36;17.77;;;11.33;;
43519;SDS011;46848;51.980;5.918;2023-12-04T05:41:02;17.50;;;11.40;;
43519;SDS011;46848;51.980;5.918;2023-12-04T05:43:28;17.53;;;10.60;;
43519;SDS011;46848;51.980;5.918;2023-12-04T05:45:53;18.43;;;11.43;;
43519;SDS011;46848;51.980;5.918;2023-12-04T05:48:19;16.43;;;9.87;;
43519;SDS011;46848;51.980;5.918;2023-12-04T05:50:45;17.47;;;10.00;;
43519;SDS011;46848;51.980;5.918;2023-12-04T05:53:11;17.53;;;10.93;;
43519;SDS011;46848;51.980;5.918;2023-12-04T05:55:36;15.90;;;10.27;;
43519;SDS011;46848;51.980;5.918;2023-12-04T05:58:02;16.63;;;10.50;;
43519;SDS011;46848;51.980;5.918;2023-12-04T06:00:28;17.33;;;10.60;;
43519;SDS011;46848;51.980;5.918;2023-12-04T06:02:53;17.33;;;10.07;;
43519;SDS011;46848;51.980;5.918;2023-12-04T06:05:19;17.57;;;9.93;;
43519;SDS011;46848;51.980;5.918;2023-12-04T06:07:45;16.10;;;10.10;;
43519;SDS011;46848;51.980;5.918;2023-12-04T06:10:10;16.20;;;10.37;;
43519;SDS011;46848;51.980;5.918;2023-12-04T06:12:36;17.57;;;11.33;;
43519;SDS011;46848;51.980;5.918;2023-12-04T06:15:01;17.33;;;10.37;;
43519;SDS011;46848;51.980;5.918;2023-12-04T06:17:27;15.47;;;9.53;;
43519;SDS011;46848;51.980;5.918;2023-12-04T06:19:53;20.47;;;10.67;;
43519;SDS011;46848;51.980;5.918;2023-12-04T06:22:18;16.43;;;10.40;;
43519;SDS011;46848;51.980;5.918;2023-12-04T06:24:46;16.53;;;9.57;;
43519;SDS011;46848;51.980;5.918;2023-12-04T06:27:16;16.03;;;9.10;;
43519;SDS011;46848;51.980;5.918;2023-12-04T06:29:46;16.80;;;10.00;;
43519;SDS011;46848;51.980;5.918;2023-12-04T06:32:12;15.80;;;9.53;;
43519;SDS011;46848;51.980;5.918;2023-12-04T06:34:38;17.27;;;9.20;;
43519;SDS011;46848;51.980;5.918;2023-12-04T06:37:11;14.80;;;9.47;;
43519;SDS011;46848;51.980;5.918;2023-12-04T06:39:38;14.87;;;9.00;;
43519;SDS011;46848;51.980;5.918;2023-12-04T06:42:06;17.43;;;10.47;;
43519;SDS011;46848;51.980;5.918;2023-12-04T06:44:32;17.07;;;9.97;;
43519;SDS011;46848;51.980;5.918;2023-12-04T06:46:59;15.27;;;9.40;;
43519;SDS011;46848;51.980;5.918;2023-12-04T06:49:27;16.50;;;9.57;;
43519;SDS011;46848;51.980;5.918;2023-12-04T06:51:55;15.00;;;9.60;;
43519;SDS011;46848;51.980;5.918;2023-12-04T06:54:21;15.07;;;9.83;;
43519;SDS011;46848;51.980;5.918;2023-12-04T06:56:46;17.23;;;10.00;;
43519;SDS011;46848;51.980;5.918;2023-12-04T06:59:12;15.37;;;8.80;;
43519;SDS011;46848;51.980;5.918;2023-12-04T07:01:38;14.77;;;9.10;;
43519;SDS011;46848;51.980;5.918;2023-12-04T07:04:03;15.37;;;8.67;;
43519;SDS011;46848;51.980;5.918;2023-12-04T07:06:35;14.67;;;8.37;;
43519;SDS011;46848;51.980;5.918;2023-12-04T07:09:01;15.30;;;8.77;;
43519;SDS011;46848;51.980;5.918;2023-12-04T07:11:27;14.10;;;8.47;;
43519;SDS011;46848;51.980;5.918;2023-12-04T07:13:53;15.73;;;8.23;;
43519;SDS011;46848;51.980;5.918;2023-12-04T07:16:18;15.40;;;8.57;;
43519;SDS011;46848;51.980;5.918;2023-12-04T07:18:44;14.47;;;8.57;;
43519;SDS011;46848;51.980;5.918;2023-12-04T07:21:09;13.37;;;7.97;;
43519;SDS011;46848;51.980;5.918;2023-12-04T07:23:35;14.00;;;8.53;;
43519;SDS011;46848;51.980;5.918;2023-12-04T07:26:00;13.47;;;7.63;;
43519;SDS011;46848;51.980;5.918;2023-12-04T07:28:26;12.03;;;7.97;;
43519;SDS011;46848;51.980;5.918;2023-12-04T07:30:52;14.50;;;8.17;;
43519;SDS011;46848;51.980;5.918;2023-12-04T07:33:20;14.50;;;8.43;;
43519;SDS011;46848;51.980;5.918;2023-12-04T07:35:45;13.63;;;7.60;;
43519;SDS011;46848;51.980;5.918;2023-12-04T07:38:11;13.47;;;8.23;;
43519;SDS011;46848;51.980;5.918;2023-12-04T07:40:37;13.83;;;7.83;;
43519;SDS011;46848;51.980;5.918;2023-12-04T07:43:03;11.77;;;7.40;;
43519;SDS011;46848;51.980;5.918;2023-12-04T07:45:28;13.83;;;8.27;;
43519;SDS011;46848;51.980;5.918;2023-12-04T07:47:54;15.27;;;8.97;;
43519;SDS011;46848;51.980;5.918;2023-12-04T07:50:19;12.40;;;8.23;;
43519;SDS011;46848;51.980;5.918;2023-12-04T07:52:46;13.07;;;8.13;;
43519;SDS011;46848;51.980;5.918;2023-12-04T07:58:30;12.77;;;7.60;;
43519;SDS011;46848;51.980;5.918;2023-12-04T08:00:57;13.77;;;7.53;;
43519;SDS011;46848;51.980;5.918;2023-12-04T08:03:22;12.97;;;7.63;;
43519;SDS011;46848;51.980;5.918;2023-12-04T08:05:49;12.53;;;6.70;;
43519;SDS011;46848;51.980;5.918;2023-12-04T08:08:15;11.90;;;7.20;;
43519;SDS011;46848;51.980;5.918;2023-12-04T08:10:41;11.83;;;7.77;;
43519;SDS011;46848;51.980;5.918;2023-12-04T08:13:07;12.30;;;7.33;;
43519;SDS011;46848;51.980;5.918;2023-12-04T08:15:32;11.50;;;6.17;;
43519;SDS011;46848;51.980;5.918;2023-12-04T08:17:58;11.40;;;6.57;;
43519;SDS011;46848;51.980;5.918;2023-12-04T08:20:25;10.63;;;6.53;;
43519;SDS011;46848;51.980;5.918;2023-12-04T08:22:50;11.73;;;6.90;;
43519;SDS011;46848;51.980;5.918;2023-12-04T08:25:16;11.70;;;7.63;;
43519;SDS011;46848;51.980;5.918;2023-12-04T08:27:42;12.90;;;7.67;;
43519;SDS011;46848;51.980;5.918;2023-12-04T08:30:07;10.00;;;6.67;;
43519;SDS011;46848;51.980;5.918;2023-12-04T08:32:33;13.73;;;7.23;;
43519;SDS011;46848;51.980;5.918;2023-12-04T08:34:59;12.40;;;7.50;;
43519;SDS011;46848;51.980;5.918;2023-12-04T08:37:24;10.73;;;7.10;;
43519;SDS011;46848;51.980;5.918;2023-12-04T08:39:50;9.33;;;5.83;;
43519;SDS011;46848;51.980;5.918;2023-12-04T08:42:16;11.83;;;6.33;;
43519;SDS011;46848;51.980;5.918;2023-12-04T08:44:41;8.77;;;6.03;;
43519;SDS011;46848;51.980;5.918;2023-12-04T08:47:08;9.70;;;6.33;;
43519;SDS011;46848;51.980;5.918;2023-12-04T08:49:33;11.97;;;7.00;;
43519;SDS011;46848;51.980;5.918;2023-12-04T08:51:59;9.90;;;6.10;;
43519;SDS011;46848;51.980;5.918;2023-12-04T08:54:25;10.03;;;5.97;;
43519;SDS011;46848;51.980;5.918;2023-12-04T08:56:50;12.40;;;7.90;;
43519;SDS011;46848;51.980;5.918;2023-12-04T08:59:16;10.53;;;6.90;;
43519;SDS011;46848;51.980;5.918;2023-12-04T09:01:42;11.30;;;6.77;;
43519;SDS011;46848;51.980;5.918;2023-12-04T09:04:08;9.80;;;6.57;;
43519;SDS011;46848;51.980;5.918;2023-12-04T09:06:34;11.77;;;7.40;;
43519;SDS011;46848;51.980;5.918;2023-12-04T09:09:00;9.50;;;6.23;;
43519;SDS011;46848;51.980;5.918;2023-12-04T09:11:27;11.73;;;6.43;;
43519;SDS011;46848;51.980;5.918;2023-12-04T09:13:53;10.00;;;6.40;;
43519;SDS011;46848;51.980;5.918;2023-12-04T09:16:19;10.23;;;6.43;;
43519;SDS011;46848;51.980;5.918;2023-12-04T09:18:44;11.17;;;6.40;;
43519;SDS011;46848;51.980;5.918;2023-12-04T09:21:11;10.07;;;6.27;;
43519;SDS011;46848;51.980;5.918;2023-12-04T09:23:36;12.40;;;6.93;;
43519;SDS011;46848;51.980;5.918;2023-12-04T09:26:02;10.43;;;6.97;;
43519;SDS011;46848;51.980;5.918;2023-12-04T09:28:28;10.63;;;6.83;;
43519;SDS011;46848;51.980;5.918;2023-12-04T09:30:53;12.60;;;7.13;;
43519;SDS011;46848;51.980;5.918;2023-12-04T09:33:19;12.33;;;7.53;;
43519;SDS011;46848;51.980;5.918;2023-12-04T09:35:46;13.77;;;8.57;;
43519;SDS011;46848;51.980;5.918;2023-12-04T09:38:12;11.73;;;7.57;;
43519;SDS011;46848;51.980;5.918;2023-12-04T09:40:37;13.30;;;8.07;;
43519;SDS011;46848;51.980;5.918;2023-12-04T09:43:03;14.57;;;8.50;;
43519;SDS011;46848;51.980;5.918;2023-12-04T09:45:31;16.13;;;8.33;;
43519;SDS011;46848;51.980;5.918;2023-12-04T09:47:57;17.10;;;9.00;;
43519;SDS011;46848;51.980;5.918;2023-12-04T09:50:24;17.57;;;9.20;;
43519;SDS011;46848;51.980;5.918;2023-12-04T09:52:50;17.77;;;9.27;;
43519;SDS011;46848;51.980;5.918;2023-12-04T09:55:18;17.40;;;9.77;;
43519;SDS011;46848;51.980;5.918;2023-12-04T09:57:44;16.97;;;9.33;;
43519;SDS011;46848;51.980;5.918;2023-12-04T10:00:14;16.60;;;8.83;;
43519;SDS011;46848;51.980;5.918;2023-12-04T10:02:41;17.43;;;9.77;;
43519;SDS011;46848;51.980;5.918;2023-12-04T10:05:10;15.17;;;9.10;;
43519;SDS011;46848;51.980;5.918;2023-12-04T10:07:36;15.63;;;8.23;;
43519;SDS011;46848;51.980;5.918;2023-12-04T10:10:03;15.30;;;9.43;;
43519;SDS011;46848;51.980;5.918;2023-12-04T10:12:32;13.33;;;8.50;;
43519;SDS011;46848;51.980;5.918;2023-12-04T10:17:34;15.97;;;9.37;;
43519;SDS011;46848;51.980;5.918;2023-12-04T10:20:05;15.90;;;8.90;;
43519;SDS011;46848;51.980;5.918;2023-12-04T10:22:36;14.75;;;9.27;;
43519;SDS011;46848;51.980;5.918;2023-12-04T10:25:15;13.73;;;9.13;;
43519;SDS011;46848;51.980;5.918;2023-12-04T10:27:43;15.53;;;9.10;;
43519;SDS011;46848;51.980;5.918;2023-12-04T10:30:09;15.33;;;8.50;;
43519;SDS011;46848;51.980;5.918;2023-12-04T10:32:39;14.10;;;8.40;;
43519;SDS011;46848;51.980;5.918;2023-12-04T10:35:05;15.50;;;9.77;;
43519;SDS011;46848;51.980;5.918;2023-12-04T10:37:35;14.43;;;9.13;;
43519;SDS011;46848;51.980;5.918;2023-12-04T10:40:02;14.57;;;9.23;;
43519;SDS011;46848;51.980;5.918;2023-12-04T10:42:29;12.57;;;8.50;;
43519;SDS011;46848;51.980;5.918;2023-12-04T10:44:58;13.90;;;8.63;;
43519;SDS011;46848;51.980;5.918;2023-12-04T10:47:24;13.07;;;8.33;;
43519;SDS011;46848;51.980;5.918;2023-12-04T10:49:50;15.33;;;9.40;;
43519;SDS011;46848;51.980;5.918;2023-12-04T10:52:19;14.03;;;9.10;;
43519;SDS011;46848;51.980;5.918;2023-12-04T10:54:46;15.80;;;9.20;;
43519;SDS011;46848;51.980;5.918;2023-12-04T10:57:21;17.00;;;9.27;;
43519;SDS011;46848;51.980;5.918;2023-12-04T10:59:51;16.90;;;9.73;;
43519;SDS011;46848;51.980;5.918;2023-12-04T11:02:21;13.87;;;7.73;;
43519;SDS011;46848;51.980;5.918;2023-12-04T11:04:51;16.03;;;8.50;;
43519;SDS011;46848;51.980;5.918;2023-12-04T11:07:22;12.27;;;8.30;;
43519;SDS011;46848;51.980;5.918;2023-12-04T11:09:52;11.60;;;7.80;;
43519;SDS011;46848;51.980;5.918;2023-12-04T11:12:18;12.47;;;7.57;;
43519;SDS011;46848;51.980;5.918;2023-12-04T11:14:52;12.32;;;7.85;;
43519;SDS011;46848;51.980;5.918;2023-12-04T11:17:21;12.67;;;8.47;;
43519;SDS011;46848;51.980;5.918;2023-12-04T11:22:33;13.83;;;8.00;;
43519;SDS011;46848;51.980;5.918;2023-12-04T11:25:01;12.80;;;8.37;;
43519;SDS011;46848;51.980;5.918;2023-12-04T11:27:30;13.53;;;8.43;;
43519;SDS011;46848;51.980;5.918;2023-12-04T11:29:56;12.17;;;7.90;;
43519;SDS011;46848;51.980;5.918;2023-12-04T11:32:24;14.10;;;8.27;;
43519;SDS011;46848;51.980;5.918;2023-12-04T11:34:55;12.33;;;8.07;;
43519;SDS011;46848;51.980;5.918;2023-12-04T11:37:24;13.07;;;8.60;;
43519;SDS011;46848;51.980;5.918;2023-12-04T11:39:50;14.07;;;8.50;;
43519;SDS011;46848;51.980;5.918;2023-12-04T11:42:23;14.20;;;7.97;;
43519;SDS011;46848;51.980;5.918;2023-12-04T11:44:49;14.50;;;8.07;;
43519;SDS011;46848;51.980;5.918;2023-12-04T11:49:47;17.47;;;7.93;;
43519;SDS011;46848;51.980;5.918;2023-12-04T11:52:12;13.23;;;8.07;;
43519;SDS011;46848;51.980;5.918;2023-12-04T11:57:34;12.93;;;8.05;;
43519;SDS011;46848;51.980;5.918;2023-12-04T12:02:47;14.40;;;7.50;;
43519;SDS011;46848;51.980;5.918;2023-12-04T12:05:26;13.30;;;8.27;;
43519;SDS011;46848;51.980;5.918;2023-12-04T12:07:52;12.80;;;7.57;;
43519;SDS011;46848;51.980;5.918;2023-12-04T12:10:18;14.20;;;8.57;;
43519;SDS011;46848;51.980;5.918;2023-12-04T12:12:43;12.37;;;7.60;;
43519;SDS011;46848;51.980;5.918;2023-12-04T12:15:12;13.17;;;7.93;;
43519;SDS011;46848;51.980;5.918;2023-12-04T12:17:38;11.23;;;7.60;;
43519;SDS011;46848;51.980;5.918;2023-12-04T12:20:08;11.33;;;7.10;;
43519;SDS011;46848;51.980;5.918;2023-12-04T12:22:36;11.53;;;7.47;;
43519;SDS011;46848;51.980;5.918;2023-12-04T12:25:06;13.30;;;7.53;;
43519;SDS011;46848;51.980;5.918;2023-12-04T12:27:33;12.10;;;7.80;;
43519;SDS011;46848;51.980;5.918;2023-12-04T12:29:59;12.57;;;7.37;;
43519;SDS011;46848;51.980;5.918;2023-12-04T12:32:25;14.03;;;8.67;;
43519;SDS011;46848;51.980;5.918;2023-12-04T12:34:51;12.40;;;7.63;;
43519;SDS011;46848;51.980;5.918;2023-12-04T12:37:17;12.17;;;7.50;;
43519;SDS011;46848;51.980;5.918;2023-12-04T12:39:43;12.17;;;7.47;;
43519;SDS011;46848;51.980;5.918;2023-12-04T12:42:09;12.13;;;7.70;;
43519;SDS011;46848;51.980;5.918;2023-12-04T12:44:36;11.27;;;7.40;;
43519;SDS011;46848;51.980;5.918;2023-12-04T12:47:04;12.40;;;7.37;;
43519;SDS011;46848;51.980;5.918;2023-12-04T12:49:31;12.00;;;7.37;;
43519;SDS011;46848;51.980;5.918;2023-12-04T12:51:56;12.60;;;7.63;;
43519;SDS011;46848;51.980;5.918;2023-12-04T12:54:25;13.63;;;8.47;;
43519;SDS011;46848;51.980;5.918;2023-12-04T12:56:50;13.43;;;8.03;;
43519;SDS011;46848;51.980;5.918;2023-12-04T12:59:16;12.37;;;7.47;;
43519;SDS011;46848;51.980;5.918;2023-12-04T13:01:43;14.00;;;8.23;;
43519;SDS011;46848;51.980;5.918;2023-12-04T13:04:08;13.10;;;8.20;;
43519;SDS011;46848;51.980;5.918;2023-12-04T13:06:40;13.73;;;8.23;;
43519;SDS011;46848;51.980;5.918;2023-12-04T13:09:05;13.87;;;7.40;;
43519;SDS011;46848;51.980;5.918;2023-12-04T13:11:31;12.93;;;8.37;;
43519;SDS011;46848;51.980;5.918;2023-12-04T13:13:58;11.50;;;7.70;;
43519;SDS011;46848;51.980;5.918;2023-12-04T13:16:23;13.80;;;7.90;;
43519;SDS011;46848;51.980;5.918;2023-12-04T13:18:49;11.80;;;7.27;;
43519;SDS011;46848;51.980;5.918;2023-12-04T13:21:15;11.80;;;7.20;;
43519;SDS011;46848;51.980;5.918;2023-12-04T13:23:40;13.30;;;8.13;;
43519;SDS011;46848;51.980;5.918;2023-12-04T13:26:06;13.43;;;6.93;;
43519;SDS011;46848;51.980;5.918;2023-12-04T13:28:35;11.90;;;7.27;;
43519;SDS011;46848;51.980;5.918;2023-12-04T13:31:04;14.47;;;8.20;;
43519;SDS011;46848;51.980;5.918;2023-12-04T13:33:30;12.87;;;7.30;;
43519;SDS011;46848;51.980;5.918;2023-12-04T13:35:56;12.10;;;7.63;;
43519;SDS011;46848;51.980;5.918;2023-12-04T13:38:22;12.73;;;7.47;;
43519;SDS011;46848;51.980;5.918;2023-12-04T13:40:48;13.37;;;8.30;;
43519;SDS011;46848;51.980;5.918;2023-12-04T13:43:25;12.53;;;8.00;;
43519;SDS011;46848;51.980;5.918;2023-12-04T13:46:10;16.17;;;8.40;;
43519;SDS011;46848;51.980;5.918;2023-12-04T13:48:36;15.80;;;8.13;;
43519;SDS011;46848;51.980;5.918;2023-12-04T13:51:05;11.80;;;7.60;;
43519;SDS011;46848;51.980;5.918;2023-12-04T13:53:34;15.00;;;8.80;;
43519;SDS011;46848;51.980;5.918;2023-12-04T13:56:00;13.30;;;8.13;;
43519;SDS011;46848;51.980;5.918;2023-12-04T13:58:26;14.87;;;9.17;;
43519;SDS011;46848;51.980;5.918;2023-12-04T14:01:01;15.03;;;9.10;;
43519;SDS011;46848;51.980;5.918;2023-12-04T14:03:36;12.27;;;7.87;;
43519;SDS011;46848;51.980;5.918;2023-12-04T14:06:02;15.30;;;8.17;;
43519;SDS011;46848;51.980;5.918;2023-12-04T14:08:28;15.07;;;8.37;;
43519;SDS011;46848;51.980;5.918;2023-12-04T14:10:53;13.67;;;7.93;;
43519;SDS011;46848;51.980;5.918;2023-12-04T14:13:19;14.87;;;8.63;;
43519;SDS011;46848;51.980;5.918;2023-12-04T14:15:45;13.30;;;8.50;;
43519;SDS011;46848;51.980;5.918;2023-12-04T14:18:11;15.20;;;8.60;;
43519;SDS011;46848;51.980;5.918;2023-12-04T14:20:36;14.43;;;8.90;;
43519;SDS011;46848;51.980;5.918;2023-12-04T14:23:02;12.43;;;7.83;;
43519;SDS011;46848;51.980;5.918;2023-12-04T14:25:29;12.73;;;8.80;;
43519;SDS011;46848;51.980;5.918;2023-12-04T14:27:54;15.13;;;7.80;;
43519;SDS011;46848;51.980;5.918;2023-12-04T14:30:20;14.90;;;9.00;;
43519;SDS011;46848;51.980;5.918;2023-12-04T14:32:45;15.57;;;8.47;;
43519;SDS011;46848;51.980;5.918;2023-12-04T14:35:11;13.80;;;9.23;;
43519;SDS011;46848;51.980;5.918;2023-12-04T14:37:38;15.30;;;9.30;;
43519;SDS011;46848;51.980;5.918;2023-12-04T14:40:04;19.30;;;10.03;;